sensor_id;sensor_type;location;lat;lon;timestamp;P1;durP1;ratioP1;P2;durP2;ratioP2
67344;SDS011;54230;52.402;6.276;2022-12-17T00:00:00;57.6;;;35.9;;
67344;SDS011;54230;52.402;6.276;2022-12-17T00:05:00;56.9;;;33.6;;
67344;SDS011;54230;52.402;6.276;2022-12-17T00:10:00;58.6;;;35.3;;
67344;SDS011;54230;52.402;6.276;2022-12-17T00:15:00;55.4;;;34.8;;
67344;SDS011;54230;52.402;6.276;2022-12-17T00:20:00;55.0;;;34.5;;
67344;SDS011;54230;52.402;6.276;2022-12-17T00:25:00;58.8;;;32.3;;
67344;SDS011;54230;52.402;6.276;2022-12-17T00:30:00;58.1;;;35.6;;
67344;SDS011;54230;52.402;6.276;2022-12-17T00:35:00;58.3;;;35.0;;
67344;SDS011;54230;52.402;6.276;2022-12-17T00:40:00;61.3;;;36.1;;
67344;SDS011;54230;52.402;6.276;2022-12-17T00:45:00;57.7;;;33.1;;
67344;SDS011;54230;52.402;6.276;2022-12-17T00:50:00;53.5;;;33.2;;
67344;SDS011;54230;52.402;6.276;2022-12-17T00:55:00;58.7;;;33.8;;
67344;SDS011;54230;52.402;6.276;2022-12-17T01:00:00;56.8;;;34.6;;
67344;SDS011;54230;52.402;6.276;2022-12-17T01:05:00;60.1;;;34.5;;
67344;SDS011;54230;52.402;6.276;2022-12-17T01:10:00;61.0;;;35.8;;
67344;SDS011;54230;52.402;6.276;2022-12-17T01:15:00;64.4;;;36.1;;
67344;SDS011;54230;52.402;6.276;2022-12-17T01:20:00;56.0;;;33.8;;
67344;SDS011;54230;52.402;6.276;2022-12-17T01:25:00;60.2;;;34.3;;
67344;SDS011;54230;52.402;6.276;2022-12-17T01:30:01;59.7;;;34.7;;
67344;SDS011;54230;52.402;6.276;2022-12-17T01:35:00;63.8;;;36.3;;
67344;SDS011;54230;52.402;6.276;2022-12-17T01:40:00;57.8;;;35.2;;
67344;SDS011;54230;52.402;6.276;2022-12-17T01:45:00;59.3;;;34.4;;
67344;SDS011;54230;52.402;6.276;2022-12-17T01:50:00;58.8;;;36.7;;
67344;SDS011;54230;52.402;6.276;2022-12-17T01:55:00;57.8;;;33.7;;
67344;SDS011;54230;52.402;6.276;2022-12-17T02:00:00;67.4;;;38.9;;
67344;SDS011;54230;52.402;6.276;2022-12-17T02:05:00;58.5;;;34.0;;
67344;SDS011;54230;52.402;6.276;2022-12-17T02:10:03;58.7;;;35.4;;
67344;SDS011;54230;52.402;6.276;2022-12-17T02:15:02;61.1;;;35.6;;
67344;SDS011;54230;52.402;6.276;2022-12-17T02:20:03;58.5;;;36.4;;
67344;SDS011;54230;52.402;6.276;2022-12-17T02:25:01;59.0;;;36.4;;
67344;SDS011;54230;52.402;6.276;2022-12-17T02:30:00;60.9;;;36.3;;
67344;SDS011;54230;52.402;6.276;2022-12-17T02:35:00;62.8;;;35.7;;
67344;SDS011;54230;52.402;6.276;2022-12-17T02:40:00;62.2;;;37.0;;
67344;SDS011;54230;52.402;6.276;2022-12-17T02:45:00;61.3;;;35.6;;
67344;SDS011;54230;52.402;6.276;2022-12-17T02:50:00;61.7;;;36.2;;
67344;SDS011;54230;52.402;6.276;2022-12-17T02:55:00;60.1;;;35.2;;
67344;SDS011;54230;52.402;6.276;2022-12-17T03:00:00;59.5;;;36.6;;
67344;SDS011;54230;52.402;6.276;2022-12-17T03:05:00;62.7;;;38.1;;
67344;SDS011;54230;52.402;6.276;2022-12-17T03:10:00;60.5;;;36.3;;
67344;SDS011;54230;52.402;6.276;2022-12-17T03:15:00;62.1;;;36.5;;
67344;SDS011;54230;52.402;6.276;2022-12-17T03:20:00;67.7;;;37.9;;
67344;SDS011;54230;52.402;6.276;2022-12-17T03:25:00;66.8;;;37.3;;
67344;SDS011;54230;52.402;6.276;2022-12-17T03:30:00;69.0;;;38.7;;
67344;SDS011;54230;52.402;6.276;2022-12-17T03:35:00;66.5;;;37.2;;
67344;SDS011;54230;52.402;6.276;2022-12-17T03:40:00;65.2;;;38.7;;
67344;SDS011;54230;52.402;6.276;2022-12-17T03:45:00;67.8;;;37.5;;
67344;SDS011;54230;52.402;6.276;2022-12-17T03:50:00;67.4;;;38.0;;
67344;SDS011;54230;52.402;6.276;2022-12-17T03:55:00;69.9;;;39.4;;
67344;SDS011;54230;52.402;6.276;2022-12-17T04:00:00;69.2;;;38.9;;
67344;SDS011;54230;52.402;6.276;2022-12-17T04:05:00;73.4;;;39.2;;
67344;SDS011;54230;52.402;6.276;2022-12-17T04:10:00;68.2;;;39.1;;
67344;SDS011;54230;52.402;6.276;2022-12-17T04:15:00;67.3;;;38.0;;
67344;SDS011;54230;52.402;6.276;2022-12-17T04:20:00;74.3;;;41.4;;
67344;SDS011;54230;52.402;6.276;2022-12-17T04:25:00;66.9;;;38.0;;
67344;SDS011;54230;52.402;6.276;2022-12-17T04:30:00;72.2;;;39.5;;
67344;SDS011;54230;52.402;6.276;2022-12-17T04:35:00;66.6;;;36.1;;
67344;SDS011;54230;52.402;6.276;2022-12-17T04:40:00;66.5;;;37.8;;
67344;SDS011;54230;52.402;6.276;2022-12-17T04:45:00;71.5;;;39.3;;
67344;SDS011;54230;52.402;6.276;2022-12-17T04:50:00;72.9;;;38.8;;
67344;SDS011;54230;52.402;6.276;2022-12-17T04:55:00;75.7;;;40.4;;
67344;SDS011;54230;52.402;6.276;2022-12-17T05:00:00;72.8;;;36.6;;
67344;SDS011;54230;52.402;6.276;2022-12-17T05:05:00;73.2;;;38.4;;
67344;SDS011;54230;52.402;6.276;2022-12-17T05:10:00;76.3;;;39.7;;
67344;SDS011;54230;52.402;6.276;2022-12-17T05:15:00;74.8;;;37.9;;
67344;SDS011;54230;52.402;6.276;2022-12-17T05:20:00;74.5;;;37.7;;
67344;SDS011;54230;52.402;6.276;2022-12-17T05:25:00;74.0;;;37.4;;
67344;SDS011;54230;52.402;6.276;2022-12-17T05:30:00;76.8;;;37.8;;
67344;SDS011;54230;52.402;6.276;2022-12-17T05:35:00;79.3;;;38.1;;
67344;SDS011;54230;52.402;6.276;2022-12-17T05:40:00;79.1;;;38.4;;
67344;SDS011;54230;52.402;6.276;2022-12-17T05:45:00;74.8;;;35.6;;
67344;SDS011;54230;52.402;6.276;2022-12-17T05:50:00;70.9;;;36.7;;
67344;SDS011;54230;52.402;6.276;2022-12-17T05:55:00;68.7;;;36.0;;
67344;SDS011;54230;52.402;6.276;2022-12-17T06:00:00;73.5;;;37.7;;
67344;SDS011;54230;52.402;6.276;2022-12-17T06:05:00;70.4;;;36.7;;
67344;SDS011;54230;52.402;6.276;2022-12-17T06:10:00;67.5;;;35.4;;
67344;SDS011;54230;52.402;6.276;2022-12-17T06:15:00;72.2;;;38.0;;
67344;SDS011;54230;52.402;6.276;2022-12-17T06:20:00;75.1;;;37.7;;
67344;SDS011;54230;52.402;6.276;2022-12-17T06:25:00;76.9;;;40.0;;
67344;SDS011;54230;52.402;6.276;2022-12-17T06:30:00;72.6;;;37.3;;
67344;SDS011;54230;52.402;6.276;2022-12-17T06:35:00;68.8;;;36.1;;
67344;SDS011;54230;52.402;6.276;2022-12-17T06:40:00;68.1;;;36.0;;
67344;SDS011;54230;52.402;6.276;2022-12-17T06:45:00;70.9;;;35.7;;
67344;SDS011;54230;52.402;6.276;2022-12-17T06:50:00;75.9;;;38.0;;
67344;SDS011;54230;52.402;6.276;2022-12-17T06:55:00;71.7;;;36.8;;
67344;SDS011;54230;52.402;6.276;2022-12-17T07:00:00;65.1;;;33.3;;
67344;SDS011;54230;52.402;6.276;2022-12-17T07:05:00;71.6;;;37.4;;
67344;SDS011;54230;52.402;6.276;2022-12-17T07:10:00;69.4;;;37.9;;
67344;SDS011;54230;52.402;6.276;2022-12-17T07:15:00;73.8;;;38.5;;
67344;SDS011;54230;52.402;6.276;2022-12-17T07:20:00;73.8;;;39.7;;
67344;SDS011;54230;52.402;6.276;2022-12-17T07:25:00;74.5;;;39.8;;
67344;SDS011;54230;52.402;6.276;2022-12-17T07:30:00;68.4;;;37.6;;
67344;SDS011;54230;52.402;6.276;2022-12-17T07:35:00;71.3;;;37.4;;
67344;SDS011;54230;52.402;6.276;2022-12-17T07:40:00;71.3;;;38.7;;
67344;SDS011;54230;52.402;6.276;2022-12-17T07:45:00;75.7;;;39.8;;
67344;SDS011;54230;52.402;6.276;2022-12-17T07:50:00;71.9;;;40.2;;
67344;SDS011;54230;52.402;6.276;2022-12-17T07:55:00;75.8;;;40.8;;
67344;SDS011;54230;52.402;6.276;2022-12-17T08:00:00;76.6;;;40.8;;
67344;SDS011;54230;52.402;6.276;2022-12-17T08:05:00;78.6;;;41.5;;
67344;SDS011;54230;52.402;6.276;2022-12-17T08:10:00;77.9;;;40.8;;
67344;SDS011;54230;52.402;6.276;2022-12-17T08:15:00;76.6;;;41.2;;
67344;SDS011;54230;52.402;6.276;2022-12-17T08:20:00;75.5;;;40.1;;
67344;SDS011;54230;52.402;6.276;2022-12-17T08:25:00;74.0;;;40.1;;
67344;SDS011;54230;52.402;6.276;2022-12-17T08:30:00;74.3;;;39.8;;
67344;SDS011;54230;52.402;6.276;2022-12-17T08:35:00;74.5;;;40.5;;
67344;SDS011;54230;52.402;6.276;2022-12-17T08:40:00;76.9;;;41.6;;
67344;SDS011;54230;52.402;6.276;2022-12-17T08:45:00;77.3;;;41.0;;
67344;SDS011;54230;52.402;6.276;2022-12-17T08:50:00;74.4;;;39.0;;
67344;SDS011;54230;52.402;6.276;2022-12-17T08:55:00;72.9;;;39.5;;
67344;SDS011;54230;52.402;6.276;2022-12-17T09:00:00;74.3;;;40.3;;
67344;SDS011;54230;52.402;6.276;2022-12-17T09:05:00;74.5;;;40.4;;
67344;SDS011;54230;52.402;6.276;2022-12-17T09:10:00;75.1;;;40.8;;
67344;SDS011;54230;52.402;6.276;2022-12-17T09:15:00;70.8;;;38.5;;
67344;SDS011;54230;52.402;6.276;2022-12-17T09:20:00;72.8;;;36.7;;
67344;SDS011;54230;52.402;6.276;2022-12-17T09:25:00;72.1;;;38.8;;
67344;SDS011;54230;52.402;6.276;2022-12-17T09:30:00;66.8;;;35.7;;
67344;SDS011;54230;52.402;6.276;2022-12-17T09:35:00;74.4;;;39.0;;
67344;SDS011;54230;52.402;6.276;2022-12-17T09:40:00;71.2;;;39.5;;
67344;SDS011;54230;52.402;6.276;2022-12-17T09:45:01;74.8;;;41.6;;
67344;SDS011;54230;52.402;6.276;2022-12-17T09:50:00;78.0;;;40.4;;
67344;SDS011;54230;52.402;6.276;2022-12-17T09:55:00;76.7;;;41.7;;
67344;SDS011;54230;52.402;6.276;2022-12-17T10:00:01;74.0;;;41.6;;
67344;SDS011;54230;52.402;6.276;2022-12-17T10:05:00;74.4;;;42.5;;
67344;SDS011;54230;52.402;6.276;2022-12-17T10:10:00;71.6;;;38.9;;
67344;SDS011;54230;52.402;6.276;2022-12-17T10:15:00;77.5;;;42.8;;
67344;SDS011;54230;52.402;6.276;2022-12-17T10:20:00;75.7;;;40.3;;
67344;SDS011;54230;52.402;6.276;2022-12-17T10:25:01;79.0;;;42.0;;
67344;SDS011;54230;52.402;6.276;2022-12-17T10:30:00;68.7;;;37.8;;
67344;SDS011;54230;52.402;6.276;2022-12-17T10:35:01;72.7;;;39.0;;
67344;SDS011;54230;52.402;6.276;2022-12-17T10:40:00;72.9;;;39.8;;
67344;SDS011;54230;52.402;6.276;2022-12-17T10:50:00;72.2;;;40.9;;
67344;SDS011;54230;52.402;6.276;2022-12-17T10:55:01;76.7;;;39.3;;
67344;SDS011;54230;52.402;6.276;2022-12-17T11:00:00;75.0;;;40.7;;
67344;SDS011;54230;52.402;6.276;2022-12-17T11:05:01;72.2;;;38.8;;
67344;SDS011;54230;52.402;6.276;2022-12-17T11:10:00;71.1;;;37.6;;
67344;SDS011;54230;52.402;6.276;2022-12-17T11:15:02;71.4;;;39.5;;
67344;SDS011;54230;52.402;6.276;2022-12-17T11:20:01;74.1;;;37.0;;
67344;SDS011;54230;52.402;6.276;2022-12-17T11:25:02;73.2;;;39.6;;
67344;SDS011;54230;52.402;6.276;2022-12-17T11:30:00;72.8;;;38.8;;
67344;SDS011;54230;52.402;6.276;2022-12-17T11:35:02;63.7;;;35.0;;
67344;SDS011;54230;52.402;6.276;2022-12-17T11:40:02;69.4;;;39.0;;
67344;SDS011;54230;52.402;6.276;2022-12-17T11:45:01;72.8;;;40.6;;
67344;SDS011;54230;52.402;6.276;2022-12-17T11:50:02;74.6;;;40.7;;
67344;SDS011;54230;52.402;6.276;2022-12-17T11:55:02;69.5;;;38.0;;
67344;SDS011;54230;52.402;6.276;2022-12-17T12:00:00;68.1;;;36.2;;
67344;SDS011;54230;52.402;6.276;2022-12-17T12:05:04;67.4;;;37.2;;
67344;SDS011;54230;52.402;6.276;2022-12-17T12:10:01;68.0;;;36.9;;
67344;SDS011;54230;52.402;6.276;2022-12-17T12:15:02;69.6;;;36.0;;
67344;SDS011;54230;52.402;6.276;2022-12-17T12:20:01;71.0;;;37.0;;
67344;SDS011;54230;52.402;6.276;2022-12-17T12:25:05;72.3;;;38.1;;
67344;SDS011;54230;52.402;6.276;2022-12-17T12:30:01;71.1;;;37.4;;
67344;SDS011;54230;52.402;6.276;2022-12-17T12:35:00;65.8;;;36.3;;
67344;SDS011;54230;52.402;6.276;2022-12-17T12:40:01;70.9;;;37.7;;
67344;SDS011;54230;52.402;6.276;2022-12-17T12:45:01;68.7;;;36.5;;
67344;SDS011;54230;52.402;6.276;2022-12-17T12:50:01;69.1;;;35.9;;
67344;SDS011;54230;52.402;6.276;2022-12-17T12:55:00;69.1;;;37.0;;
67344;SDS011;54230;52.402;6.276;2022-12-17T13:00:00;66.4;;;34.6;;
67344;SDS011;54230;52.402;6.276;2022-12-17T13:05:00;72.2;;;36.9;;
67344;SDS011;54230;52.402;6.276;2022-12-17T13:10:00;70.4;;;36.5;;
67344;SDS011;54230;52.402;6.276;2022-12-17T13:15:08;71.7;;;38.0;;
67344;SDS011;54230;52.402;6.276;2022-12-17T13:20:02;66.0;;;33.4;;
67344;SDS011;54230;52.402;6.276;2022-12-17T13:25:09;70.1;;;36.1;;
67344;SDS011;54230;52.402;6.276;2022-12-17T13:30:10;73.3;;;36.1;;
67344;SDS011;54230;52.402;6.276;2022-12-17T13:35:04;69.7;;;35.0;;
67344;SDS011;54230;52.402;6.276;2022-12-17T13:40:03;71.2;;;37.9;;
67344;SDS011;54230;52.402;6.276;2022-12-17T13:45:00;69.4;;;36.6;;
67344;SDS011;54230;52.402;6.276;2022-12-17T13:50:01;76.2;;;38.5;;
67344;SDS011;54230;52.402;6.276;2022-12-17T13:55:05;71.5;;;36.8;;
67344;SDS011;54230;52.402;6.276;2022-12-17T14:00:00;72.1;;;37.7;;
67344;SDS011;54230;52.402;6.276;2022-12-17T14:05:00;71.2;;;36.6;;
67344;SDS011;54230;52.402;6.276;2022-12-17T14:10:01;73.9;;;38.2;;
67344;SDS011;54230;52.402;6.276;2022-12-17T14:15:01;73.1;;;36.8;;
67344;SDS011;54230;52.402;6.276;2022-12-17T14:20:01;72.7;;;36.6;;
67344;SDS011;54230;52.402;6.276;2022-12-17T14:25:00;75.4;;;37.0;;
67344;SDS011;54230;52.402;6.276;2022-12-17T14:30:00;72.3;;;36.5;;
67344;SDS011;54230;52.402;6.276;2022-12-17T14:35:00;74.0;;;37.4;;
67344;SDS011;54230;52.402;6.276;2022-12-17T14:40:00;73.7;;;38.0;;
67344;SDS011;54230;52.402;6.276;2022-12-17T14:45:01;74.0;;;35.6;;
67344;SDS011;54230;52.402;6.276;2022-12-17T14:50:02;74.1;;;36.7;;
67344;SDS011;54230;52.402;6.276;2022-12-17T14:55:00;65.2;;;32.8;;
67344;SDS011;54230;52.402;6.276;2022-12-17T15:00:00;73.5;;;35.6;;
67344;SDS011;54230;52.402;6.276;2022-12-17T15:05:00;70.3;;;35.3;;
67344;SDS011;54230;52.402;6.276;2022-12-17T15:10:00;70.7;;;34.9;;
67344;SDS011;54230;52.402;6.276;2022-12-17T15:15:00;71.6;;;36.6;;
67344;SDS011;54230;52.402;6.276;2022-12-17T15:20:00;70.2;;;34.9;;
67344;SDS011;54230;52.402;6.276;2022-12-17T15:25:00;63.8;;;32.7;;
67344;SDS011;54230;52.402;6.276;2022-12-17T15:30:00;75.0;;;36.6;;
67344;SDS011;54230;52.402;6.276;2022-12-17T15:35:00;73.7;;;35.2;;
67344;SDS011;54230;52.402;6.276;2022-12-17T15:40:00;71.3;;;35.3;;
67344;SDS011;54230;52.402;6.276;2022-12-17T15:45:00;74.8;;;37.6;;
67344;SDS011;54230;52.402;6.276;2022-12-17T15:50:00;75.9;;;37.2;;
67344;SDS011;54230;52.402;6.276;2022-12-17T15:55:00;75.7;;;38.2;;
67344;SDS011;54230;52.402;6.276;2022-12-17T16:00:00;72.5;;;35.8;;
67344;SDS011;54230;52.402;6.276;2022-12-17T16:05:00;74.8;;;37.1;;
67344;SDS011;54230;52.402;6.276;2022-12-17T16:10:00;76.5;;;38.0;;
67344;SDS011;54230;52.402;6.276;2022-12-17T16:15:00;78.9;;;36.9;;
67344;SDS011;54230;52.402;6.276;2022-12-17T16:20:00;71.5;;;36.7;;
67344;SDS011;54230;52.402;6.276;2022-12-17T16:25:00;76.4;;;36.5;;
67344;SDS011;54230;52.402;6.276;2022-12-17T16:30:00;74.7;;;36.7;;
67344;SDS011;54230;52.402;6.276;2022-12-17T16:35:00;70.6;;;36.4;;
67344;SDS011;54230;52.402;6.276;2022-12-17T16:40:00;67.2;;;35.5;;
67344;SDS011;54230;52.402;6.276;2022-12-17T16:45:00;71.8;;;37.3;;
67344;SDS011;54230;52.402;6.276;2022-12-17T16:50:00;72.5;;;37.9;;
67344;SDS011;54230;52.402;6.276;2022-12-17T16:55:00;72.6;;;37.7;;
67344;SDS011;54230;52.402;6.276;2022-12-17T17:00:00;75.9;;;38.1;;
67344;SDS011;54230;52.402;6.276;2022-12-17T17:05:00;70.2;;;37.9;;
67344;SDS011;54230;52.402;6.276;2022-12-17T17:10:00;76.3;;;39.0;;
67344;SDS011;54230;52.402;6.276;2022-12-17T17:15:00;74.4;;;38.1;;
67344;SDS011;54230;52.402;6.276;2022-12-17T17:20:00;74.6;;;39.6;;
67344;SDS011;54230;52.402;6.276;2022-12-17T17:25:00;75.2;;;39.9;;
67344;SDS011;54230;52.402;6.276;2022-12-17T17:30:00;67.7;;;37.4;;
67344;SDS011;54230;52.402;6.276;2022-12-17T17:35:00;73.5;;;39.0;;
67344;SDS011;54230;52.402;6.276;2022-12-17T17:40:00;71.9;;;38.3;;
67344;SDS011;54230;52.402;6.276;2022-12-17T17:45:00;74.3;;;39.8;;
67344;SDS011;54230;52.402;6.276;2022-12-17T17:50:00;78.5;;;39.8;;
67344;SDS011;54230;52.402;6.276;2022-12-17T17:55:00;77.2;;;40.2;;
67344;SDS011;54230;52.402;6.276;2022-12-17T18:00:00;74.4;;;39.0;;
67344;SDS011;54230;52.402;6.276;2022-12-17T18:05:00;81.7;;;41.1;;
67344;SDS011;54230;52.402;6.276;2022-12-17T18:10:00;79.6;;;40.4;;
67344;SDS011;54230;52.402;6.276;2022-12-17T18:15:00;81.9;;;40.1;;
67344;SDS011;54230;52.402;6.276;2022-12-17T18:20:00;81.5;;;41.7;;
67344;SDS011;54230;52.402;6.276;2022-12-17T18:25:00;77.8;;;40.4;;
67344;SDS011;54230;52.402;6.276;2022-12-17T18:30:00;72.9;;;36.9;;
67344;SDS011;54230;52.402;6.276;2022-12-17T18:35:00;71.8;;;37.2;;
67344;SDS011;54230;52.402;6.276;2022-12-17T18:40:00;79.8;;;40.3;;
67344;SDS011;54230;52.402;6.276;2022-12-17T18:45:00;82.4;;;41.3;;
67344;SDS011;54230;52.402;6.276;2022-12-17T18:50:00;79.1;;;40.2;;
67344;SDS011;54230;52.402;6.276;2022-12-17T18:55:00;79.0;;;41.7;;
67344;SDS011;54230;52.402;6.276;2022-12-17T19:00:00;78.6;;;42.1;;
67344;SDS011;54230;52.402;6.276;2022-12-17T19:05:00;77.7;;;40.8;;
67344;SDS011;54230;52.402;6.276;2022-12-17T19:10:00;74.2;;;39.4;;
67344;SDS011;54230;52.402;6.276;2022-12-17T19:15:00;75.1;;;39.2;;
67344;SDS011;54230;52.402;6.276;2022-12-17T19:20:00;77.7;;;41.0;;
67344;SDS011;54230;52.402;6.276;2022-12-17T19:25:00;81.2;;;41.9;;
67344;SDS011;54230;52.402;6.276;2022-12-17T19:30:00;78.6;;;41.8;;
67344;SDS011;54230;52.402;6.276;2022-12-17T19:35:00;81.6;;;40.2;;
67344;SDS011;54230;52.402;6.276;2022-12-17T19:40:00;79.2;;;38.6;;
67344;SDS011;54230;52.402;6.276;2022-12-17T19:45:00;82.4;;;42.1;;
67344;SDS011;54230;52.402;6.276;2022-12-17T19:50:00;89.8;;;43.1;;
67344;SDS011;54230;52.402;6.276;2022-12-17T19:55:00;87.0;;;41.7;;
67344;SDS011;54230;52.402;6.276;2022-12-17T20:00:00;81.7;;;39.2;;
67344;SDS011;54230;52.402;6.276;2022-12-17T20:05:00;85.7;;;40.6;;
67344;SDS011;54230;52.402;6.276;2022-12-17T20:10:00;76.1;;;38.0;;
67344;SDS011;54230;52.402;6.276;2022-12-17T20:15:00;86.8;;;39.4;;
67344;SDS011;54230;52.402;6.276;2022-12-17T20:20:00;83.5;;;40.5;;
67344;SDS011;54230;52.402;6.276;2022-12-17T20:25:00;89.6;;;40.3;;
67344;SDS011;54230;52.402;6.276;2022-12-17T20:30:00;90.5;;;40.8;;
67344;SDS011;54230;52.402;6.276;2022-12-17T20:35:00;85.7;;;39.7;;
67344;SDS011;54230;52.402;6.276;2022-12-17T20:40:00;75.9;;;37.8;;
67344;SDS011;54230;52.402;6.276;2022-12-17T20:45:00;76.3;;;36.2;;
67344;SDS011;54230;52.402;6.276;2022-12-17T20:50:00;85.1;;;40.2;;
67344;SDS011;54230;52.402;6.276;2022-12-17T20:55:00;86.6;;;39.8;;
67344;SDS011;54230;52.402;6.276;2022-12-17T21:00:00;88.3;;;41.4;;
67344;SDS011;54230;52.402;6.276;2022-12-17T21:05:00;86.0;;;39.7;;
67344;SDS011;54230;52.402;6.276;2022-12-17T21:10:00;88.9;;;39.5;;
67344;SDS011;54230;52.402;6.276;2022-12-17T21:15:00;79.9;;;37.0;;
67344;SDS011;54230;52.402;6.276;2022-12-17T21:20:00;84.0;;;38.6;;
67344;SDS011;54230;52.402;6.276;2022-12-17T21:25:00;82.1;;;37.6;;
67344;SDS011;54230;52.402;6.276;2022-12-17T21:30:00;84.9;;;39.9;;
67344;SDS011;54230;52.402;6.276;2022-12-17T21:35:00;83.4;;;38.3;;
67344;SDS011;54230;52.402;6.276;2022-12-17T21:40:00;81.9;;;38.7;;
67344;SDS011;54230;52.402;6.276;2022-12-17T21:45:00;78.2;;;36.9;;
67344;SDS011;54230;52.402;6.276;2022-12-17T21:50:00;86.1;;;39.4;;
67344;SDS011;54230;52.402;6.276;2022-12-17T21:55:00;78.8;;;37.1;;
67344;SDS011;54230;52.402;6.276;2022-12-17T22:00:00;76.9;;;36.1;;
67344;SDS011;54230;52.402;6.276;2022-12-17T22:05:00;70.1;;;36.9;;
67344;SDS011;54230;52.402;6.276;2022-12-17T22:10:00;72.2;;;33.9;;
67344;SDS011;54230;52.402;6.276;2022-12-17T22:15:00;85.2;;;39.2;;
67344;SDS011;54230;52.402;6.276;2022-12-17T22:20:00;74.7;;;38.3;;
67344;SDS011;54230;52.402;6.276;2022-12-17T22:25:00;81.9;;;39.0;;
67344;SDS011;54230;52.402;6.276;2022-12-17T22:30:00;71.8;;;37.2;;
67344;SDS011;54230;52.402;6.276;2022-12-17T22:35:00;76.1;;;36.3;;
67344;SDS011;54230;52.402;6.276;2022-12-17T22:40:00;86.3;;;41.0;;
67344;SDS011;54230;52.402;6.276;2022-12-17T22:45:00;87.6;;;39.9;;
67344;SDS011;54230;52.402;6.276;2022-12-17T22:50:00;92.5;;;41.1;;
67344;SDS011;54230;52.402;6.276;2022-12-17T22:55:00;87.9;;;42.4;;
67344;SDS011;54230;52.402;6.276;2022-12-17T23:00:00;91.6;;;41.0;;
67344;SDS011;54230;52.402;6.276;2022-12-17T23:05:00;90.2;;;42.6;;
67344;SDS011;54230;52.402;6.276;2022-12-17T23:10:00;88.6;;;42.7;;
67344;SDS011;54230;52.402;6.276;2022-12-17T23:15:00;81.8;;;39.8;;
67344;SDS011;54230;52.402;6.276;2022-12-17T23:20:00;86.0;;;42.5;;
67344;SDS011;54230;52.402;6.276;2022-12-17T23:25:00;85.5;;;42.5;;
67344;SDS011;54230;52.402;6.276;2022-12-17T23:30:00;88.4;;;41.4;;
67344;SDS011;54230;52.402;6.276;2022-12-17T23:35:00;94.8;;;43.6;;
67344;SDS011;54230;52.402;6.276;2022-12-17T23:40:00;92.8;;;44.6;;
67344;SDS011;54230;52.402;6.276;2022-12-17T23:45:00;93.5;;;43.9;;
67344;SDS011;54230;52.402;6.276;2022-12-17T23:50:00;87.6;;;43.9;;
67344;SDS011;54230;52.402;6.276;2022-12-17T23:55:00;90.6;;;44.3;;
